createdAt,value
2023-09-21T00:02:18.676Z,89.44
2023-09-21T00:05:21.850Z,88.87
2023-09-21T00:08:25.793Z,88.40
2023-09-21T00:11:27.722Z,89.36
2023-09-21T00:14:29.512Z,89.21
2023-09-21T00:17:33.964Z,87.21
2023-09-21T00:20:44.404Z,89.62
2023-09-21T00:23:49.546Z,90.07
2023-09-21T00:26:52.878Z,89.43
2023-09-21T00:29:54.659Z,90.29
2023-09-21T00:32:57.071Z,89.80
2023-09-21T00:36:14.433Z,89.28
2023-09-21T00:39:16.700Z,89.99
2023-09-21T00:42:18.588Z,88.85
2023-09-21T00:45:22.817Z,90.99
2023-09-21T00:48:35.536Z,90.07
2023-09-21T00:51:39.985Z,88.63
2023-09-21T00:54:42.970Z,89.20
2023-09-21T00:57:47.145Z,90.22
2023-09-21T01:00:51.968Z,89.18
2023-09-21T01:03:55.814Z,89.91
2023-09-21T01:06:57.761Z,90.11
2023-09-21T01:09:59.681Z,90.01
2023-09-21T01:13:01.449Z,89.58
2023-09-21T01:16:06.305Z,89.00
2023-09-21T01:19:08.163Z,88.92
2023-09-21T01:22:13.274Z,89.83
2023-09-21T01:25:15.683Z,89.82
2023-09-21T01:28:24.346Z,89.92
2023-09-21T01:31:26.519Z,90.28
2023-09-21T01:34:28.428Z,90.23
2023-09-21T01:37:30.971Z,90.81
2023-09-21T01:40:36.425Z,90.66
2023-09-21T01:43:40.537Z,89.76
2023-09-21T01:46:42.502Z,90.36
2023-09-21T01:49:45.764Z,89.66
2023-09-21T01:52:47.584Z,90.08
2023-09-21T01:55:50.723Z,89.46
2023-09-21T01:58:52.610Z,90.49
2023-09-21T02:01:54.880Z,90.36
2023-09-21T02:04:57.056Z,91.92
2023-09-21T02:08:00.061Z,91.99
2023-09-21T02:11:01.971Z,90.71
2023-09-21T02:14:04.045Z,91.04
2023-09-21T02:17:05.894Z,92.24
2023-09-21T02:20:15.578Z,90.33
2023-09-21T02:23:18.492Z,91.31
2023-09-21T02:26:20.318Z,91.82
2023-09-21T02:29:23.638Z,92.00
2023-09-21T02:32:25.446Z,91.05
2023-09-21T02:35:28.976Z,89.88
2023-09-21T02:38:30.808Z,89.29
2023-09-21T02:41:32.585Z,90.33
2023-09-21T02:44:34.722Z,91.65
2023-09-21T02:47:37.092Z,91.39
2023-09-21T02:50:39.490Z,91.93
2023-09-21T02:53:43.690Z,90.53
2023-09-21T02:56:45.668Z,90.12
2023-09-21T02:59:47.473Z,90.51
2023-09-21T03:02:50.445Z,92.20
2023-09-21T03:05:54.397Z,92.95
2023-09-21T03:08:57.188Z,92.90
2023-09-21T03:12:00.724Z,92.89
2023-09-21T03:15:04.839Z,92.99
2023-09-21T03:18:07.219Z,92.69
2023-09-21T03:21:16.452Z,91.62
2023-09-21T03:24:18.995Z,90.37
2023-09-21T03:27:21.242Z,91.50
2023-09-21T03:30:28.207Z,92.48
2023-09-21T03:33:30.244Z,91.08
2023-09-21T03:36:36.903Z,91.64
2023-09-21T03:39:38.728Z,91.89
2023-09-21T03:42:42.458Z,91.88
2023-09-21T03:45:45.931Z,93.52
2023-09-21T03:48:50.272Z,94.12
2023-09-21T03:51:52.281Z,92.06
2023-09-21T03:54:54.094Z,92.36
2023-09-21T03:57:55.877Z,92.40
2023-09-21T04:01:01.607Z,92.40
2023-09-21T04:04:09.178Z,94.35
2023-09-21T04:07:14.033Z,93.62
2023-09-21T04:10:16.525Z,92.39
2023-09-21T04:13:20.414Z,91.91
2023-09-21T04:16:22.238Z,93.67
2023-09-21T04:19:24.444Z,94.63
2023-09-21T04:22:26.859Z,94.67
2023-09-21T04:25:29.039Z,93.99
2023-09-21T04:28:30.865Z,92.60
2023-09-21T04:31:32.669Z,94.27
2023-09-21T04:34:34.628Z,94.33
2023-09-21T04:37:39.598Z,93.94
2023-09-21T04:40:41.401Z,91.92
2023-09-21T04:43:43.423Z,90.71
2023-09-21T04:46:45.586Z,90.00
2023-09-21T04:49:48.121Z,88.94
2023-09-21T04:52:50.643Z,89.48
2023-09-21T04:55:52.642Z,91.76
2023-09-21T04:58:56.964Z,89.85
2023-09-21T05:01:58.775Z,88.47
2023-09-21T05:05:00.890Z,93.76
2023-09-21T05:08:05.138Z,94.71
2023-09-21T05:11:07.198Z,96.37
2023-09-21T05:14:10.052Z,97.35
2023-09-21T05:17:12.665Z,97.29
2023-09-21T05:20:16.364Z,97.40
2023-09-21T05:23:18.226Z,93.84
2023-09-21T05:26:20.048Z,97.45
2023-09-21T05:29:23.313Z,96.75
2023-09-21T05:32:25.581Z,94.50
2023-09-21T05:35:28.989Z,97.03
2023-09-21T05:38:31.589Z,96.23
2023-09-21T05:41:33.326Z,95.29
2023-09-21T05:44:35.283Z,92.87
2023-09-21T05:47:38.404Z,91.90
2023-09-21T05:50:42.631Z,93.02
2023-09-21T05:53:44.946Z,92.54
2023-09-21T05:56:46.852Z,90.29
2023-09-21T05:59:50.643Z,89.75
2023-09-21T06:02:53.173Z,90.90
2023-09-21T06:05:55.204Z,89.41
2023-09-21T06:08:57.915Z,86.67
2023-09-21T06:11:59.789Z,87.09
2023-09-21T06:15:01.730Z,87.81
2023-09-21T06:18:03.945Z,86.96
2023-09-21T06:21:07.734Z,85.73
2023-09-21T06:24:11.500Z,85.32
2023-09-21T06:27:14.784Z,84.59
2023-09-21T06:30:16.726Z,87.00
2023-09-21T06:33:19.947Z,86.27
2023-09-21T06:36:22.072Z,85.83
2023-09-21T06:39:23.991Z,85.89
2023-09-21T06:42:25.885Z,84.29
2023-09-21T06:45:32.617Z,83.33
2023-09-21T06:48:34.616Z,83.24
2023-09-21T06:51:36.460Z,81.04
2023-09-21T06:54:39.586Z,80.30
2023-09-21T06:57:41.458Z,80.07
2023-09-21T07:00:44.115Z,79.52
2023-09-21T07:03:46.256Z,75.88
2023-09-21T07:06:48.485Z,73.69
2023-09-21T07:09:50.454Z,77.72
2023-09-21T07:12:52.730Z,75.83
2023-09-21T07:15:57.807Z,75.22
2023-09-21T07:18:59.805Z,77.06
2023-09-21T07:22:01.881Z,73.68
2023-09-21T07:25:04.379Z,72.24
2023-09-21T07:28:06.510Z,72.66
2023-09-21T07:31:10.682Z,71.82
2023-09-21T07:34:12.700Z,70.15
2023-09-21T07:37:17.237Z,69.81
2023-09-21T07:40:21.445Z,66.64
2023-09-21T07:43:23.290Z,65.58
2023-09-21T07:46:25.282Z,64.57
2023-09-21T07:49:27.157Z,63.47
2023-09-21T07:52:30.587Z,65.24
2023-09-21T07:55:35.221Z,67.40
2023-09-21T07:58:37.899Z,66.57
2023-09-21T08:01:39.884Z,65.80
2023-09-21T08:04:41.829Z,64.66
2023-09-21T08:07:43.843Z,67.28
2023-09-21T08:10:45.701Z,71.54
2023-09-21T08:13:47.525Z,72.52
2023-09-21T08:16:49.892Z,74.28
2023-09-21T08:19:51.866Z,71.88
2023-09-21T08:22:54.996Z,71.64
2023-09-21T08:25:57.287Z,72.75
2023-09-21T08:29:00.706Z,71.74
2023-09-21T08:32:03.797Z,71.30
2023-09-21T08:35:06.103Z,70.50
2023-09-21T08:38:07.944Z,74.37
2023-09-21T08:41:09.869Z,75.32
2023-09-21T08:44:12.799Z,74.46
2023-09-21T08:47:31.613Z,76.22
2023-09-21T08:50:40.257Z,80.34
2023-09-21T08:53:43.450Z,80.93
2023-09-21T08:56:48.426Z,83.88
2023-09-21T08:59:55.486Z,84.13
2023-09-21T09:02:57.892Z,84.28
2023-09-21T09:06:00.097Z,84.20
2023-09-21T09:09:02.047Z,86.30
2023-09-21T09:12:04.121Z,82.51
2023-09-21T09:15:10.038Z,83.45
2023-09-21T09:18:14.339Z,81.39
2023-09-21T09:21:16.275Z,82.10
2023-09-21T09:24:21.306Z,82.70
2023-09-21T09:27:23.243Z,82.72
2023-09-21T09:30:26.466Z,83.24
2023-09-21T09:33:28.417Z,81.33
2023-09-21T09:36:30.690Z,80.88
2023-09-21T09:39:34.397Z,77.93
2023-09-21T09:42:41.542Z,77.15
2023-09-21T09:45:51.197Z,78.96
2023-09-21T09:48:58.777Z,75.86
2023-09-21T09:52:07.234Z,78.80
2023-09-21T09:55:14.379Z,73.43
2023-09-21T09:58:17.296Z,73.98
2023-09-21T10:01:22.048Z,70.63
2023-09-21T10:04:24.451Z,68.78
2023-09-21T10:07:26.673Z,67.96
2023-09-21T10:10:37.629Z,65.32
2023-09-21T10:13:54.330Z,63.84
2023-09-21T10:16:57.929Z,64.56
2023-09-21T10:20:16.088Z,61.17
2023-09-21T10:23:19.755Z,59.71
2023-09-21T10:26:22.969Z,59.83
2023-09-21T10:29:33.603Z,58.56
2023-09-21T10:32:54.793Z,56.14
2023-09-21T10:35:56.789Z,56.60
2023-09-21T10:39:07.872Z,54.05
2023-09-21T10:42:09.770Z,54.75
2023-09-21T10:45:12.096Z,52.33
2023-09-21T10:48:15.608Z,54.19
2023-09-21T10:51:17.749Z,54.25
2023-09-21T10:54:20.097Z,53.41
2023-09-21T10:57:30.030Z,52.53
2023-09-21T11:00:32.784Z,52.89
2023-09-21T11:03:36.703Z,53.44
2023-09-21T11:06:38.756Z,53.09
2023-09-21T11:09:42.866Z,49.16
2023-09-21T11:12:46.420Z,50.67
2023-09-21T11:15:49.312Z,48.64
2023-09-21T11:18:53.872Z,47.67
2023-09-21T11:21:56.290Z,47.25
2023-09-21T11:24:58.886Z,46.02
2023-09-21T11:28:01.079Z,44.13
2023-09-21T11:31:03.769Z,43.32
2023-09-21T11:34:08.707Z,41.83
2023-09-21T11:37:12.391Z,40.61
2023-09-21T11:40:15.737Z,40.94
2023-09-21T11:43:18.111Z,40.42
2023-09-21T11:46:22.311Z,39.28
2023-09-21T11:49:44.554Z,37.92
2023-09-21T11:52:46.520Z,36.28
2023-09-21T11:55:48.434Z,34.81
2023-09-21T11:58:50.229Z,33.73
2023-09-21T12:01:53.075Z,32.48
2023-09-21T12:04:54.816Z,32.12
2023-09-21T12:07:57.978Z,30.65
2023-09-21T12:11:00.014Z,27.31
2023-09-21T12:14:05.979Z,27.55
2023-09-21T12:17:13.042Z,26.04
2023-09-21T12:20:18.611Z,25.03
2023-09-21T12:23:21.060Z,25.03
2023-09-21T12:26:25.726Z,24.47
2023-09-21T12:29:27.484Z,23.27
2023-09-21T12:32:29.454Z,23.20
2023-09-21T12:35:32.054Z,22.75
2023-09-21T12:38:34.796Z,22.45
2023-09-21T12:41:39.850Z,24.59
2023-09-21T12:44:44.133Z,24.32
2023-09-21T12:47:47.734Z,23.77
2023-09-21T12:50:49.574Z,23.83
2023-09-21T12:53:51.548Z,23.02
2023-09-21T12:56:53.341Z,22.33
2023-09-21T12:59:55.647Z,21.67
2023-09-21T13:02:58.604Z,22.21
2023-09-21T13:06:00.604Z,20.94
2023-09-21T13:09:02.744Z,21.04
2023-09-21T13:12:05.131Z,21.09
2023-09-21T13:15:08.079Z,20.12
2023-09-21T13:18:11.971Z,19.63
2023-09-21T13:21:17.222Z,20.30
2023-09-21T13:24:19.146Z,21.33
2023-09-21T13:27:23.686Z,24.18
2023-09-21T13:30:25.553Z,26.38
2023-09-21T13:33:27.788Z,27.24
2023-09-21T13:36:31.257Z,24.88
2023-09-21T13:39:33.130Z,26.61
2023-09-21T13:42:37.743Z,25.26
2023-09-21T13:45:43.132Z,25.11
2023-09-21T13:48:45.236Z,24.54
2023-09-21T13:51:47.908Z,25.51
2023-09-21T13:54:59.082Z,26.22
2023-09-21T13:58:12.179Z,27.22
2023-09-21T14:01:14.101Z,28.01
2023-09-21T14:04:16.646Z,29.05
2023-09-21T14:07:19.211Z,29.09
2023-09-21T14:10:22.351Z,30.41
2023-09-21T14:13:24.495Z,31.58
2023-09-21T14:16:26.350Z,30.79
2023-09-21T14:19:28.165Z,29.25
2023-09-21T14:22:30.005Z,28.47
2023-09-21T14:25:31.845Z,30.59
2023-09-21T14:28:35.484Z,28.60
2023-09-21T14:31:37.342Z,28.62
2023-09-21T14:34:40.564Z,28.86
2023-09-21T14:37:42.367Z,27.72
2023-09-21T14:40:44.211Z,28.68
2023-09-21T14:43:46.121Z,28.78
2023-09-21T14:46:48.042Z,28.59
2023-09-21T14:49:50.265Z,28.60
2023-09-21T14:52:54.008Z,29.02
2023-09-21T14:55:57.073Z,29.11
2023-09-21T14:58:59.794Z,29.16
2023-09-21T15:02:02.049Z,29.64
2023-09-21T15:05:05.959Z,29.28
2023-09-21T15:08:13.355Z,29.39
2023-09-21T15:11:15.879Z,30.29
2023-09-21T15:14:17.652Z,29.71
2023-09-21T15:17:19.445Z,31.21
2023-09-21T15:20:21.231Z,30.77
2023-09-21T15:23:23.229Z,31.40
2023-09-21T15:26:26.153Z,31.43
2023-09-21T15:29:27.981Z,31.80
2023-09-21T15:32:29.873Z,32.25
2023-09-21T15:35:31.698Z,32.69
2023-09-21T15:38:34.996Z,32.62
2023-09-21T15:41:37.858Z,33.11
2023-09-21T15:44:39.866Z,34.34
2023-09-21T15:47:41.752Z,34.87
2023-09-21T15:50:44.137Z,35.49
2023-09-21T15:53:46.283Z,36.59
2023-09-21T15:56:48.114Z,38.31
2023-09-21T15:59:50.082Z,38.62
2023-09-21T16:02:51.973Z,39.41
2023-09-21T16:05:53.806Z,40.16
2023-09-21T16:08:55.728Z,40.24
2023-09-21T16:11:58.777Z,42.82
2023-09-21T16:15:00.721Z,42.35
2023-09-21T16:18:03.890Z,45.09
2023-09-21T16:21:06.250Z,46.39
2023-09-21T16:24:08.472Z,47.99
2023-09-21T16:27:11.138Z,49.89
2023-09-21T16:30:13.177Z,50.35
2023-09-21T16:33:15.341Z,50.13
2023-09-21T16:36:17.430Z,52.54
2023-09-21T16:39:19.486Z,53.13
2023-09-21T16:42:21.331Z,53.65
2023-09-21T16:45:23.116Z,53.22
2023-09-21T16:48:25.606Z,56.88
2023-09-21T16:51:27.478Z,58.20
2023-09-21T16:54:29.608Z,58.19
2023-09-21T16:57:32.319Z,56.60
2023-09-21T17:00:35.299Z,55.96
2023-09-21T17:03:37.815Z,57.95
2023-09-21T17:06:39.756Z,57.14
2023-09-21T17:09:41.632Z,58.60
2023-09-21T17:12:43.547Z,57.14
2023-09-21T17:15:45.506Z,54.73
2023-09-21T17:18:48.048Z,54.66
2023-09-21T17:21:49.865Z,53.56
2023-09-21T17:24:52.690Z,51.34
2023-09-21T17:27:54.479Z,51.21
2023-09-21T17:30:56.502Z,50.85
2023-09-21T17:33:58.524Z,51.15
2023-09-21T17:37:00.415Z,51.87
2023-09-21T17:40:05.281Z,51.00
2023-09-21T17:43:07.313Z,50.78
2023-09-21T17:46:09.330Z,51.23
2023-09-21T17:49:13.271Z,51.14
2023-09-21T17:52:17.367Z,52.14
2023-09-21T17:55:19.658Z,51.25
2023-09-21T17:58:21.878Z,51.52
2023-09-21T18:01:26.840Z,51.41
2023-09-21T18:04:29.632Z,52.38
2023-09-21T18:07:32.340Z,51.96
2023-09-21T18:10:37.261Z,52.39
2023-09-21T18:13:39.529Z,53.05
2023-09-21T18:16:42.702Z,54.53
2023-09-21T18:19:44.520Z,56.38
2023-09-21T18:22:46.389Z,54.84
2023-09-21T18:25:48.319Z,55.62
2023-09-21T18:28:50.443Z,57.39
2023-09-21T18:31:52.314Z,57.49
2023-09-21T18:34:54.649Z,62.49
2023-09-21T18:37:57.683Z,60.84
2023-09-21T18:41:00.852Z,62.68
2023-09-21T18:44:02.931Z,63.43
2023-09-21T18:47:06.699Z,64.70
2023-09-21T18:50:09.026Z,64.43
2023-09-21T18:53:12.064Z,66.70
2023-09-21T18:56:14.647Z,67.50
2023-09-21T18:59:16.552Z,69.28
2023-09-21T19:02:19.437Z,69.27
2023-09-21T19:05:22.271Z,69.25
2023-09-21T19:08:24.314Z,70.12
2023-09-21T19:11:28.339Z,70.00
2023-09-21T19:14:31.221Z,70.66
2023-09-21T19:17:34.406Z,70.35
2023-09-21T19:20:36.254Z,70.52
2023-09-21T19:23:38.823Z,70.38
2023-09-21T19:26:40.677Z,72.58
2023-09-21T19:29:42.453Z,73.15
2023-09-21T19:32:44.278Z,74.23
2023-09-21T19:35:46.329Z,74.73
2023-09-21T19:38:49.691Z,74.93
2023-09-21T19:41:52.667Z,75.07
2023-09-21T19:44:55.398Z,74.65
2023-09-21T19:47:57.192Z,75.86
2023-09-21T19:50:59.185Z,75.83
2023-09-21T19:54:01.312Z,74.86
2023-09-21T19:57:04.592Z,74.17
2023-09-21T20:00:07.877Z,76.41
2023-09-21T20:03:14.869Z,73.92
2023-09-21T20:06:16.926Z,70.47
2023-09-21T20:09:19.365Z,68.22
2023-09-21T20:12:21.368Z,67.34
2023-09-21T20:15:23.235Z,67.34
2023-09-21T20:18:26.303Z,65.79
2023-09-21T20:21:28.164Z,65.62
2023-09-21T20:24:30.754Z,64.81
2023-09-21T20:27:32.679Z,65.29
2023-09-21T20:30:35.545Z,64.60
2023-09-21T20:33:37.692Z,64.40
2023-09-21T20:36:41.723Z,64.56
2023-09-21T20:39:43.642Z,64.66
2023-09-21T20:42:45.594Z,64.27
2023-09-21T20:45:47.579Z,63.83
2023-09-21T20:48:49.889Z,63.74
2023-09-21T20:51:52.096Z,64.05
2023-09-21T20:54:54.068Z,63.35
2023-09-21T20:57:56.048Z,63.47
2023-09-21T21:00:58.138Z,62.61
2023-09-21T21:03:59.974Z,62.02
2023-09-21T21:07:01.782Z,61.85
2023-09-21T21:10:06.245Z,61.82
2023-09-21T21:13:08.118Z,60.74
2023-09-21T21:16:10.277Z,60.96
2023-09-21T21:19:12.149Z,60.96
2023-09-21T21:22:14.062Z,60.40
2023-09-21T21:25:15.955Z,60.10
2023-09-21T21:28:17.881Z,59.73
2023-09-21T21:31:19.718Z,60.57
2023-09-21T21:34:21.513Z,60.70
2023-09-21T21:37:23.697Z,60.81
2023-09-21T21:40:26.677Z,62.13
2023-09-21T21:43:29.154Z,61.27
2023-09-21T21:46:30.944Z,62.25
2023-09-21T21:49:32.845Z,64.12
2023-09-21T21:52:34.694Z,65.95
2023-09-21T21:55:37.196Z,68.45
2023-09-21T21:58:39.013Z,68.68
2023-09-21T22:01:40.962Z,68.96
2023-09-21T22:04:44.828Z,70.25
2023-09-21T22:07:46.847Z,70.06
2023-09-21T22:10:48.914Z,71.52
2023-09-21T22:13:50.697Z,72.29
2023-09-21T22:16:52.767Z,73.65
2023-09-21T22:19:54.792Z,73.32
2023-09-21T22:22:57.375Z,75.17
2023-09-21T22:25:59.124Z,74.79
2023-09-21T22:29:00.923Z,76.44
2023-09-21T22:32:02.663Z,76.97
2023-09-21T22:35:08.114Z,79.69
2023-09-21T22:38:15.013Z,79.16
2023-09-21T22:41:17.565Z,79.08
2023-09-21T22:44:20.081Z,77.89
2023-09-21T22:47:22.562Z,78.46
2023-09-21T22:50:24.327Z,79.07
2023-09-21T22:53:26.573Z,79.22
2023-09-21T22:56:28.345Z,80.23
2023-09-21T22:59:30.145Z,80.21
2023-09-21T23:02:32.010Z,80.05
2023-09-21T23:05:33.789Z,79.60
2023-09-21T23:08:37.355Z,81.20
2023-09-21T23:11:39.168Z,80.55
2023-09-21T23:14:42.502Z,81.35
2023-09-21T23:17:45.233Z,81.49
2023-09-21T23:20:48.768Z,81.56
2023-09-21T23:23:50.965Z,81.87
2023-09-21T23:26:52.918Z,82.07
2023-09-21T23:29:54.741Z,82.50
2023-09-21T23:32:57.219Z,82.31
2023-09-21T23:36:00.087Z,82.47
2023-09-21T23:39:02.043Z,82.25
2023-09-21T23:42:03.873Z,82.46
2023-09-21T23:45:13.896Z,82.68
2023-09-21T23:48:16.528Z,84.12
2023-09-21T23:51:18.417Z,83.08
2023-09-21T23:54:23.303Z,83.26
2023-09-21T23:57:25.340Z,84.39
